createdAt,value
2018-08-17T00:01:22.337Z,4.18
2018-08-17T00:03:49.356Z,3.50
2018-08-17T00:06:16.400Z,3.80
2018-08-17T00:08:43.483Z,3.80
2018-08-17T00:11:11.140Z,3.90
2018-08-17T00:13:38.091Z,4.03
2018-08-17T00:16:05.137Z,3.80
2018-08-17T00:18:32.287Z,4.00
2018-08-17T00:20:59.323Z,4.35
2018-08-17T00:23:27.408Z,3.50
2018-08-17T00:25:54.463Z,4.00
2018-08-17T00:28:21.543Z,4.18
2018-08-17T00:30:48.554Z,3.95
2018-08-17T00:33:15.915Z,3.55
2018-08-17T00:35:42.959Z,4.12
2018-08-17T00:38:10.021Z,4.00
2018-08-17T00:40:37.431Z,3.55
2018-08-17T00:43:04.521Z,3.95
2018-08-17T00:45:32.594Z,3.97
2018-08-17T00:48:00.116Z,3.80
2018-08-17T00:50:27.096Z,3.83
2018-08-17T00:52:54.148Z,4.20
2018-08-17T00:55:22.430Z,3.92
2018-08-17T00:57:50.500Z,3.95
2018-08-17T01:00:17.513Z,4.05
2018-08-17T01:02:45.726Z,3.78
2018-08-17T01:05:12.779Z,4.03
2018-08-17T01:07:39.917Z,4.30
2018-08-17T01:10:07.682Z,4.20
2018-08-17T01:12:35.447Z,4.45
2018-08-17T01:15:02.495Z,4.43
2018-08-17T01:17:29.548Z,3.95
2018-08-17T01:19:56.594Z,4.60
2018-08-17T01:22:23.642Z,4.43
2018-08-17T01:24:50.696Z,4.43
2018-08-17T01:27:17.704Z,4.03
2018-08-17T01:29:44.997Z,4.15
2018-08-17T01:32:12.088Z,4.00
2018-08-17T01:34:39.192Z,3.90
2018-08-17T01:37:06.756Z,3.60
2018-08-17T01:39:33.801Z,3.58
2018-08-17T01:42:00.849Z,3.55
2018-08-17T01:44:27.909Z,4.22
2018-08-17T01:46:54.946Z,3.85
2018-08-17T01:49:22.820Z,3.45
2018-08-17T01:51:49.862Z,3.70
2018-08-17T01:54:17.552Z,3.62
2018-08-17T01:56:44.579Z,3.47
2018-08-17T01:59:11.625Z,3.35
2018-08-17T02:01:38.672Z,3.67
2018-08-17T02:04:05.726Z,4.12
2018-08-17T02:06:33.861Z,3.85
2018-08-17T02:09:00.949Z,3.65
2018-08-17T02:11:27.994Z,3.90
2018-08-17T02:13:55.041Z,3.50
2018-08-17T02:16:21.988Z,3.50
2018-08-17T02:18:49.445Z,3.80
2018-08-17T02:21:16.494Z,3.90
2018-08-17T02:23:43.548Z,4.12
2018-08-17T02:26:10.592Z,3.97
2018-08-17T02:28:37.621Z,4.10
2018-08-17T02:31:06.635Z,4.30
2018-08-17T02:33:33.690Z,4.28
2018-08-17T02:36:00.733Z,4.40
2018-08-17T02:38:29.318Z,4.30
2018-08-17T02:40:56.774Z,3.97
2018-08-17T02:43:23.828Z,3.60
2018-08-17T02:45:51.796Z,4.90
2018-08-17T02:48:20.175Z,4.43
2018-08-17T02:50:47.221Z,3.92
2018-08-17T02:53:14.583Z,4.25
2018-08-17T02:55:41.627Z,3.87
2018-08-17T02:58:08.674Z,4.30
2018-08-17T03:00:35.728Z,4.10
2018-08-17T03:03:02.774Z,4.40
2018-08-17T03:05:30.135Z,4.53
2018-08-17T03:07:57.183Z,4.22
2018-08-17T03:10:24.225Z,4.37
2018-08-17T03:12:51.177Z,4.62
2018-08-17T03:15:18.221Z,4.22
2018-08-17T03:17:46.195Z,4.43
2018-08-17T03:20:13.245Z,4.53
2018-08-17T03:22:40.454Z,4.50
2018-08-17T03:25:07.643Z,4.80
2018-08-17T03:27:34.656Z,4.72
2018-08-17T03:30:01.644Z,4.82
2018-08-17T03:32:28.892Z,5.00
2018-08-17T03:34:56.045Z,4.82
2018-08-17T03:37:23.097Z,4.72
2018-08-17T03:39:50.147Z,5.40
2018-08-17T03:42:17.192Z,5.05
2018-08-17T03:44:44.240Z,4.82
2018-08-17T03:47:11.294Z,5.47
2018-08-17T03:49:38.335Z,5.20
2018-08-17T03:52:06.826Z,5.12
2018-08-17T03:54:33.865Z,5.00
2018-08-17T03:57:00.916Z,4.87
2018-08-17T03:59:28.280Z,4.80
2018-08-17T04:01:55.525Z,5.12
2018-08-17T04:04:22.542Z,5.65
2018-08-17T04:06:49.648Z,5.53
2018-08-17T04:09:16.669Z,5.55
2018-08-17T04:11:43.724Z,5.75
2018-08-17T04:14:11.587Z,5.00
2018-08-17T04:16:38.641Z,5.50
2018-08-17T04:19:05.794Z,5.35
2018-08-17T04:21:35.401Z,5.35
2018-08-17T04:24:02.446Z,5.65
2018-08-17T04:26:30.316Z,5.32
2018-08-17T04:28:57.695Z,5.37
2018-08-17T04:31:25.430Z,5.35
2018-08-17T04:33:52.484Z,5.50
2018-08-17T04:36:20.656Z,5.03
2018-08-17T04:38:47.705Z,4.97
2018-08-17T04:41:14.957Z,5.03
2018-08-17T04:43:42.034Z,5.10
2018-08-17T04:46:09.061Z,5.22
2018-08-17T04:48:36.212Z,5.30
2018-08-17T04:51:03.254Z,5.18
2018-08-17T04:53:30.304Z,5.12
2018-08-17T04:55:57.357Z,5.47
2018-08-17T04:58:24.401Z,4.93
2018-08-17T05:00:51.449Z,5.37
2018-08-17T05:03:18.657Z,5.68
2018-08-17T05:05:45.752Z,5.22
2018-08-17T05:08:12.901Z,5.32
2018-08-17T05:10:40.769Z,5.28
2018-08-17T05:13:07.820Z,5.40
2018-08-17T05:15:35.890Z,5.65
2018-08-17T05:18:03.044Z,5.72
2018-08-17T05:20:47.295Z,4.60
2018-08-17T05:23:33.128Z,5.07
2018-08-17T05:26:25.249Z,5.22
2018-08-17T05:29:11.507Z,5.00
2018-08-17T05:31:52.453Z,4.78
2018-08-17T05:34:38.726Z,4.87
2018-08-17T05:37:05.751Z,4.85
2018-08-17T05:39:34.127Z,5.00
2018-08-17T05:42:01.142Z,4.72
2018-08-17T05:44:29.658Z,4.65
2018-08-17T05:46:56.808Z,4.20
2018-08-17T05:49:23.850Z,4.40
2018-08-17T05:51:51.733Z,4.40
2018-08-17T05:54:19.690Z,4.45
2018-08-17T05:56:46.760Z,4.22
2018-08-17T05:59:13.792Z,4.25
2018-08-17T06:01:41.347Z,4.10
2018-08-17T06:04:08.402Z,4.57
2018-08-17T06:06:39.424Z,4.15
2018-08-17T06:09:06.490Z,4.18
2018-08-17T06:11:33.567Z,4.25
2018-08-17T06:14:01.403Z,4.20
2018-08-17T06:16:29.477Z,4.22
2018-08-17T06:18:56.530Z,4.55
2018-08-17T06:21:24.602Z,3.90
2018-08-17T06:23:52.260Z,4.10
2018-08-17T06:26:19.309Z,4.53
2018-08-17T06:28:46.562Z,4.07
2018-08-17T06:31:13.615Z,3.87
2018-08-17T06:33:40.666Z,3.97
2018-08-17T06:36:07.871Z,4.15
2018-08-17T06:38:34.984Z,3.62
2018-08-17T06:41:02.082Z,3.85
2018-08-17T06:43:29.165Z,3.85
2018-08-17T06:45:56.735Z,3.30
2018-08-17T06:48:23.771Z,3.60
2018-08-17T06:50:50.960Z,3.25
2018-08-17T06:53:18.891Z,3.37
2018-08-17T06:55:49.020Z,3.45
2018-08-17T06:58:16.168Z,3.60
2018-08-17T07:00:43.417Z,3.40
2018-08-17T07:03:29.422Z,3.50
2018-08-17T07:06:11.274Z,3.40
2018-08-17T07:08:38.459Z,3.53
2018-08-17T07:11:05.611Z,3.35
2018-08-17T07:13:32.758Z,3.28
2018-08-17T07:15:59.916Z,3.62
2018-08-17T07:18:27.957Z,3.35
2018-08-17T07:20:55.031Z,3.40
2018-08-17T07:23:22.083Z,3.53
2018-08-17T07:25:49.236Z,3.28
2018-08-17T07:28:16.358Z,3.17
2018-08-17T07:30:44.557Z,2.92
2018-08-17T07:33:12.039Z,3.25
2018-08-17T07:35:39.192Z,3.58
2018-08-17T07:38:08.098Z,3.47
2018-08-17T07:40:35.215Z,3.30
2018-08-17T07:43:02.311Z,3.12
2018-08-17T07:45:29.409Z,3.50
2018-08-17T07:47:57.895Z,3.17
2018-08-17T07:50:25.047Z,3.62
2018-08-17T07:52:54.410Z,3.35
2018-08-17T07:55:21.499Z,3.10
2018-08-17T07:57:49.979Z,3.60
2018-08-17T08:00:18.152Z,3.67
2018-08-17T08:02:45.199Z,3.25
2018-08-17T08:05:14.873Z,3.70
2018-08-17T08:07:41.960Z,3.53
2018-08-17T08:10:09.014Z,3.22
2018-08-17T08:12:36.165Z,3.25
2018-08-17T08:15:04.544Z,3.45
2018-08-17T08:17:31.697Z,3.90
2018-08-17T08:19:58.848Z,3.60
2018-08-17T08:22:26.041Z,3.30
2018-08-17T08:24:53.148Z,3.42
2018-08-17T08:27:20.193Z,3.35
2018-08-17T08:29:47.242Z,3.30
2018-08-17T08:32:14.296Z,3.40
2018-08-17T08:34:42.677Z,3.45
2018-08-17T08:37:09.718Z,3.30
2018-08-17T08:39:36.770Z,3.60
2018-08-17T08:42:03.822Z,3.17
2018-08-17T08:44:30.839Z,3.50
2018-08-17T08:46:58.220Z,3.45
2018-08-17T08:49:25.274Z,3.78
2018-08-17T08:51:52.215Z,3.75
2018-08-17T08:54:20.149Z,3.53
2018-08-17T08:56:47.233Z,3.62
2018-08-17T08:59:14.281Z,3.80
2018-08-17T09:01:41.541Z,3.85
2018-08-17T09:04:09.505Z,3.62
2018-08-17T09:06:36.559Z,3.75
2018-08-17T09:09:03.709Z,3.47
2018-08-17T09:11:30.779Z,3.70
2018-08-17T09:13:57.825Z,3.70
2018-08-17T09:16:24.876Z,3.30
2018-08-17T09:18:52.333Z,3.33
2018-08-17T09:21:19.381Z,3.40
2018-08-17T09:23:46.390Z,3.80
2018-08-17T09:26:13.482Z,3.22
2018-08-17T09:28:40.633Z,3.60
2018-08-17T09:31:07.606Z,3.97
2018-08-17T09:33:34.602Z,3.70
2018-08-17T09:36:01.711Z,3.50
2018-08-17T09:38:28.818Z,3.40
2018-08-17T09:40:57.941Z,3.67
2018-08-17T09:43:25.071Z,3.70
2018-08-17T09:45:52.114Z,3.80
2018-08-17T09:48:19.164Z,3.80
2018-08-17T09:50:46.216Z,3.30
2018-08-17T09:53:13.262Z,3.85
2018-08-17T09:55:40.213Z,3.55
2018-08-17T09:58:08.488Z,3.60
2018-08-17T10:00:56.816Z,3.42
2018-08-17T10:03:43.442Z,3.60
2018-08-17T10:06:10.596Z,3.58
2018-08-17T10:08:37.610Z,3.28
2018-08-17T10:11:04.763Z,3.37
2018-08-17T10:13:32.556Z,3.15
2018-08-17T10:16:00.526Z,3.50
2018-08-17T10:18:27.676Z,3.60
2018-08-17T10:20:54.931Z,3.20
2018-08-17T10:23:24.038Z,3.10
2018-08-17T10:25:51.075Z,3.10
2018-08-17T10:28:18.090Z,2.70
2018-08-17T10:30:45.275Z,3.10
2018-08-17T10:33:12.333Z,3.30
2018-08-17T10:35:40.469Z,3.25
2018-08-17T10:38:07.554Z,3.20
2018-08-17T10:40:36.135Z,2.92
2018-08-17T10:43:03.180Z,3.30
2018-08-17T10:45:30.235Z,2.80
2018-08-17T10:47:57.277Z,3.10
2018-08-17T10:50:25.934Z,2.85
2018-08-17T10:52:53.114Z,2.72
2018-08-17T10:55:20.166Z,2.70
2018-08-17T10:57:47.217Z,2.87
2018-08-17T11:00:15.597Z,2.90
2018-08-17T11:02:42.640Z,2.53
2018-08-17T11:05:09.900Z,2.95
2018-08-17T11:07:36.942Z,2.70
2018-08-17T11:10:03.990Z,2.70
2018-08-17T11:12:31.043Z,2.67
2018-08-17T11:14:58.059Z,2.70
2018-08-17T11:17:25.136Z,2.90
2018-08-17T11:19:52.257Z,2.83
2018-08-17T11:22:19.340Z,2.90
2018-08-17T11:24:46.692Z,2.70
2018-08-17T11:27:13.740Z,2.75
2018-08-17T11:29:41.678Z,2.85
2018-08-17T11:32:08.737Z,2.90
2018-08-17T11:34:35.806Z,2.47
2018-08-17T11:37:04.185Z,2.72
2018-08-17T11:39:31.337Z,2.65
2018-08-17T11:41:58.391Z,2.80
2018-08-17T11:44:25.434Z,2.70
2018-08-17T11:46:52.480Z,2.80
2018-08-17T11:49:19.522Z,2.90
2018-08-17T11:51:46.784Z,2.92
2018-08-17T11:54:13.799Z,2.67
2018-08-17T11:56:40.987Z,2.80
2018-08-17T11:59:08.032Z,2.78
2018-08-17T12:01:35.082Z,2.55
2018-08-17T12:04:02.849Z,2.67
2018-08-17T12:06:30.103Z,2.67
2018-08-17T12:08:57.149Z,2.47
2018-08-17T12:11:24.201Z,2.80
2018-08-17T12:13:51.354Z,2.50
2018-08-17T12:16:18.599Z,2.67
2018-08-17T12:18:45.792Z,2.72
2018-08-17T12:21:13.311Z,3.03
2018-08-17T12:23:40.358Z,2.85
2018-08-17T12:26:07.472Z,2.50
2018-08-17T12:28:34.564Z,2.70
2018-08-17T12:31:01.608Z,2.78
2018-08-17T12:33:28.665Z,2.72
2018-08-17T12:35:55.811Z,2.67
2018-08-17T12:38:22.856Z,2.80
2018-08-17T12:40:49.906Z,2.50
2018-08-17T12:43:17.055Z,2.70
2018-08-17T12:45:45.127Z,2.60
2018-08-17T12:48:12.382Z,2.67
2018-08-17T12:50:39.430Z,2.70
2018-08-17T12:53:06.483Z,2.70
2018-08-17T12:55:33.831Z,2.60
2018-08-17T12:58:00.912Z,2.53
2018-08-17T13:00:28.919Z,2.70
2018-08-17T13:02:57.567Z,2.92
2018-08-17T13:05:24.617Z,2.67
2018-08-17T13:07:51.768Z,2.47
2018-08-17T13:10:19.840Z,2.62
2018-08-17T13:12:46.991Z,3.00
2018-08-17T13:15:14.032Z,2.90
2018-08-17T13:17:41.698Z,3.08
2018-08-17T13:20:08.753Z,2.60
2018-08-17T13:22:35.791Z,2.70
2018-08-17T13:25:02.841Z,2.83
2018-08-17T13:27:29.894Z,2.83
2018-08-17T13:29:56.980Z,2.72
2018-08-17T13:32:24.089Z,2.62
2018-08-17T13:34:52.672Z,2.45
2018-08-17T13:37:19.690Z,2.47
2018-08-17T13:39:46.790Z,2.60
2018-08-17T13:42:13.966Z,2.55
2018-08-17T13:44:41.014Z,2.50
2018-08-17T13:47:08.221Z,2.60
2018-08-17T13:49:35.271Z,2.53
2018-08-17T13:52:02.327Z,2.60
2018-08-17T13:54:29.478Z,2.72
2018-08-17T13:56:56.743Z,2.60
2018-08-17T13:59:23.776Z,2.53
2018-08-17T14:01:50.819Z,2.50
2018-08-17T14:04:18.693Z,2.55
2018-08-17T14:06:45.735Z,2.40
2018-08-17T14:09:14.013Z,2.60
2018-08-17T14:11:41.579Z,2.53
2018-08-17T14:14:08.621Z,2.65
2018-08-17T14:16:35.675Z,2.58
2018-08-17T14:19:22.089Z,2.60
2018-08-17T14:21:49.122Z,2.45
2018-08-17T14:24:16.175Z,2.40
2018-08-17T14:26:44.412Z,2.62
2018-08-17T14:29:11.802Z,2.33
2018-08-17T14:31:39.923Z,2.60
2018-08-17T14:34:07.026Z,2.50
2018-08-17T14:36:34.060Z,2.28
2018-08-17T14:39:01.122Z,2.70
2018-08-17T14:41:28.171Z,2.35
2018-08-17T14:43:55.224Z,2.50
2018-08-17T14:46:22.322Z,2.83
2018-08-17T14:48:49.419Z,3.03
2018-08-17T14:51:16.466Z,2.95
2018-08-17T14:53:44.027Z,3.12
2018-08-17T14:56:11.075Z,2.75
2018-08-17T14:58:38.139Z,2.97
2018-08-17T15:01:05.711Z,3.05
2018-08-17T15:03:32.938Z,3.10
2018-08-17T15:05:59.960Z,2.85
2018-08-17T15:08:27.750Z,2.95
2018-08-17T15:10:54.864Z,3.15
2018-08-17T15:13:21.997Z,3.10
2018-08-17T15:15:50.030Z,3.22
2018-08-17T15:18:17.079Z,2.87
2018-08-17T15:20:44.197Z,3.37
2018-08-17T15:23:11.277Z,3.22
2018-08-17T15:25:38.385Z,3.15
2018-08-17T15:28:05.473Z,2.95
2018-08-17T15:30:33.029Z,3.08
2018-08-17T15:33:00.081Z,2.83
2018-08-17T15:35:28.866Z,3.00
2018-08-17T15:38:02.467Z,3.15
2018-08-17T15:40:30.306Z,3.28
2018-08-17T15:42:59.513Z,3.08
2018-08-17T15:45:27.202Z,3.10
2018-08-17T15:47:54.245Z,3.20
2018-08-17T15:50:21.505Z,2.97
2018-08-17T15:52:48.654Z,3.30
2018-08-17T15:55:15.700Z,2.72
2018-08-17T15:57:42.849Z,2.95
2018-08-17T16:00:09.902Z,3.20
2018-08-17T16:02:38.585Z,2.70
2018-08-17T16:05:05.842Z,2.87
2018-08-17T16:07:34.310Z,3.00
2018-08-17T16:10:01.478Z,2.80
2018-08-17T16:12:32.623Z,3.40
2018-08-17T16:15:02.202Z,3.08
2018-08-17T16:17:29.272Z,3.08
2018-08-17T16:19:56.323Z,3.33
2018-08-17T16:22:24.988Z,2.90
2018-08-17T16:24:53.179Z,2.80
2018-08-17T16:27:39.161Z,2.87
2018-08-17T16:30:07.874Z,3.08
2018-08-17T16:32:35.019Z,2.90
2018-08-17T16:35:02.061Z,2.80
2018-08-17T16:37:29.186Z,2.90
2018-08-17T16:39:56.360Z,3.08
2018-08-17T16:42:23.410Z,2.90
2018-08-17T16:44:50.934Z,3.28
2018-08-17T16:47:18.020Z,3.62
2018-08-17T16:49:45.073Z,2.97
2018-08-17T16:52:12.915Z,3.05
2018-08-17T16:54:40.012Z,3.00
2018-08-17T16:57:07.549Z,2.90
2018-08-17T16:59:34.601Z,2.90
2018-08-17T17:02:02.370Z,2.70
2018-08-17T17:04:32.208Z,3.20
2018-08-17T17:07:01.165Z,2.97
2018-08-17T17:09:28.316Z,3.22
2018-08-17T17:11:55.365Z,3.10
2018-08-17T17:14:22.725Z,2.62
2018-08-17T17:16:49.771Z,3.17
2018-08-17T17:19:16.817Z,3.72
2018-08-17T17:21:43.968Z,3.08
2018-08-17T17:24:12.040Z,3.40
2018-08-17T17:26:39.094Z,3.50
2018-08-17T17:29:06.246Z,3.20
2018-08-17T17:31:33.311Z,3.62
2018-08-17T17:34:00.338Z,3.20
2018-08-17T17:36:27.283Z,2.97
2018-08-17T17:38:54.434Z,3.20
2018-08-17T17:41:21.482Z,3.33
2018-08-17T17:43:48.537Z,3.58
2018-08-17T17:46:15.582Z,3.10
2018-08-17T17:48:42.629Z,3.55
2018-08-17T17:51:09.880Z,3.50
2018-08-17T17:53:36.930Z,3.70
2018-08-17T17:56:04.047Z,3.47
2018-08-17T17:58:38.619Z,3.42
2018-08-17T18:01:05.861Z,3.72
2018-08-17T18:03:32.906Z,3.37
2018-08-17T18:05:59.960Z,3.10
2018-08-17T18:08:27.113Z,3.28
2018-08-17T18:10:54.154Z,3.37
2018-08-17T18:13:21.203Z,3.70
2018-08-17T18:15:48.257Z,3.50
2018-08-17T18:18:15.271Z,3.67
2018-08-17T18:20:42.870Z,3.25
2018-08-17T18:23:10.020Z,3.80
2018-08-17T18:25:37.266Z,3.40
2018-08-17T18:28:05.337Z,3.60
2018-08-17T18:30:32.349Z,3.53
2018-08-17T18:33:08.241Z,4.18
2018-08-17T18:35:35.296Z,3.50
2018-08-17T18:38:02.338Z,3.60
2018-08-17T18:40:29.693Z,2.95
2018-08-17T18:42:56.749Z,3.20
2018-08-17T18:45:23.792Z,3.37
2018-08-17T18:47:51.664Z,3.30
2018-08-17T18:50:18.711Z,3.50
2018-08-17T18:52:45.770Z,3.67
2018-08-17T18:55:12.812Z,3.67
2018-08-17T18:57:39.855Z,3.50
2018-08-17T19:00:07.000Z,3.50
2018-08-17T19:02:34.979Z,3.72
2018-08-17T19:05:02.029Z,3.75
2018-08-17T19:07:29.797Z,3.37
2018-08-17T19:09:57.571Z,3.55
2018-08-17T19:12:24.710Z,4.20
2018-08-17T19:14:51.822Z,3.87
2018-08-17T19:17:19.015Z,3.90
2018-08-17T19:19:46.281Z,3.90
2018-08-17T19:22:13.517Z,3.70
2018-08-17T19:24:40.665Z,4.22
2018-08-17T19:27:07.713Z,3.95
2018-08-17T19:29:34.768Z,3.95
2018-08-17T19:32:01.811Z,3.83
2018-08-17T19:34:28.859Z,4.28
2018-08-17T19:36:56.012Z,3.70
2018-08-17T19:39:23.068Z,4.30
2018-08-17T19:41:50.108Z,4.50
2018-08-17T19:44:17.156Z,3.75
2018-08-17T19:46:44.210Z,4.35
2018-08-17T19:49:31.683Z,4.10
2018-08-17T19:52:16.679Z,4.18
2018-08-17T19:54:45.511Z,5.05
2018-08-17T19:57:12.542Z,4.75
2018-08-17T19:59:39.595Z,4.57
2018-08-17T20:02:06.946Z,4.37
2018-08-17T20:04:33.992Z,4.75
2018-08-17T20:07:01.048Z,4.50
2018-08-17T20:09:28.091Z,5.00
2018-08-17T20:11:55.139Z,4.32
2018-08-17T20:14:22.193Z,4.50
2018-08-17T20:16:49.240Z,4.80
2018-08-17T20:19:16.416Z,4.32
2018-08-17T20:21:43.436Z,5.00
2018-08-17T20:24:10.489Z,4.82
2018-08-17T20:26:38.345Z,4.68
2018-08-17T20:29:05.101Z,4.47
2018-08-17T20:31:32.142Z,4.37
2018-08-17T20:33:59.191Z,4.80
2018-08-17T20:36:26.245Z,4.70
2018-08-17T20:38:53.494Z,4.75
2018-08-17T20:41:21.362Z,4.18
2018-08-17T20:43:49.332Z,4.60
2018-08-17T20:46:16.386Z,4.80
2018-08-17T20:48:43.635Z,4.40
2018-08-17T20:51:10.958Z,4.82
2018-08-17T20:53:38.037Z,5.18
2018-08-17T20:56:05.188Z,5.05
2018-08-17T20:58:32.239Z,4.95
2018-08-17T21:00:59.290Z,5.18
2018-08-17T21:03:26.334Z,5.60
2018-08-17T21:05:53.381Z,6.15
2018-08-17T21:08:20.438Z,5.50
2018-08-17T21:10:47.480Z,5.20
2018-08-17T21:13:14.798Z,5.45
2018-08-17T21:15:41.988Z,5.50
2018-08-17T21:18:09.044Z,5.85
2018-08-17T21:20:36.085Z,6.00
2018-08-17T21:23:03.134Z,6.62
2018-08-17T21:25:30.591Z,7.15
2018-08-17T21:27:57.646Z,7.60
2018-08-17T21:30:25.610Z,6.82
2018-08-17T21:32:52.658Z,6.45
2018-08-17T21:35:19.712Z,7.85
2018-08-17T21:37:46.755Z,7.60
2018-08-17T21:40:14.214Z,7.22
2018-08-17T21:42:41.262Z,8.45
2018-08-17T21:45:08.321Z,8.77
2018-08-17T21:47:35.363Z,8.50
2018-08-17T21:50:02.516Z,8.73
2018-08-17T21:52:29.560Z,8.13
2018-08-17T21:54:56.613Z,8.93
2018-08-17T21:57:23.765Z,9.07
2018-08-17T21:59:50.808Z,9.20
2018-08-17T22:02:17.952Z,9.52
2018-08-17T22:04:45.006Z,9.60
2018-08-17T22:07:12.060Z,9.02
2018-08-17T22:09:39.212Z,9.75
2018-08-17T22:12:07.178Z,10.50
2018-08-17T22:14:34.225Z,10.80
2018-08-17T22:17:01.378Z,11.18
2018-08-17T22:19:32.486Z,10.93
2018-08-17T22:21:59.575Z,10.50
2018-08-17T22:24:26.665Z,10.30
2018-08-17T22:26:53.666Z,10.27
2018-08-17T22:29:20.773Z,10.60
2018-08-17T22:31:47.873Z,10.30
2018-08-17T22:34:14.944Z,10.15
2018-08-17T22:36:44.498Z,11.07
2018-08-17T22:39:11.576Z,11.30
2018-08-17T22:41:38.606Z,11.88
2018-08-17T22:44:05.776Z,11.38
2018-08-17T22:46:32.861Z,11.40
2018-08-17T22:49:00.041Z,10.75
2018-08-17T22:51:26.924Z,9.93
2018-08-17T22:53:53.965Z,10.38
2018-08-17T22:56:21.014Z,10.35
2018-08-17T22:58:48.070Z,9.80
2018-08-17T23:01:15.219Z,9.10
2018-08-17T23:03:42.372Z,8.90
2018-08-17T23:06:09.415Z,8.95
2018-08-17T23:08:36.463Z,7.72
2018-08-17T23:11:03.614Z,7.78
2018-08-17T23:13:30.668Z,7.30
2018-08-17T23:15:57.819Z,7.47
2018-08-17T23:18:24.863Z,7.40
2018-08-17T23:20:52.126Z,6.87
2018-08-17T23:23:19.164Z,6.78
2018-08-17T23:25:46.215Z,6.97
2018-08-17T23:28:14.081Z,6.45
2018-08-17T23:30:41.131Z,6.65
2018-08-17T23:33:08.184Z,6.70
2018-08-17T23:35:35.845Z,6.55
2018-08-17T23:38:02.889Z,5.93
2018-08-17T23:40:30.041Z,6.03
2018-08-17T23:42:57.096Z,5.78
2018-08-17T23:45:24.138Z,6.40
2018-08-17T23:47:51.188Z,5.90
2018-08-17T23:50:18.248Z,5.32
2018-08-17T23:52:45.288Z,5.75
2018-08-17T23:55:12.946Z,6.00
2018-08-17T23:57:40.000Z,5.35
